sensor_id;sensor_type;location;lat;lon;timestamp;temperature;humidity
51922;DHT22;37948;53.260;6.394;2022-09-29T00:01:56;8.40;99.90
51922;DHT22;37948;53.260;6.394;2022-09-29T00:04:21;8.40;99.90
51922;DHT22;37948;53.260;6.394;2022-09-29T00:06:47;8.40;99.90
51922;DHT22;37948;53.260;6.394;2022-09-29T00:09:13;8.40;99.90
51922;DHT22;37948;53.260;6.394;2022-09-29T00:11:38;8.40;99.90
51922;DHT22;37948;53.260;6.394;2022-09-29T00:14:04;8.40;99.90
51922;DHT22;37948;53.260;6.394;2022-09-29T00:16:29;8.40;99.90
51922;DHT22;37948;53.260;6.394;2022-09-29T00:18:55;8.40;99.90
51922;DHT22;37948;53.260;6.394;2022-09-29T00:21:21;8.40;99.90
51922;DHT22;37948;53.260;6.394;2022-09-29T00:23:48;8.40;99.90
51922;DHT22;37948;53.260;6.394;2022-09-29T00:26:17;8.30;99.90
51922;DHT22;37948;53.260;6.394;2022-09-29T00:28:51;8.30;99.90
51922;DHT22;37948;53.260;6.394;2022-09-29T00:31:18;8.30;99.90
51922;DHT22;37948;53.260;6.394;2022-09-29T00:33:44;8.30;99.90
51922;DHT22;37948;53.260;6.394;2022-09-29T00:36:12;8.30;99.90
51922;DHT22;37948;53.260;6.394;2022-09-29T00:38:38;8.30;99.90
51922;DHT22;37948;53.260;6.394;2022-09-29T00:41:05;8.20;99.90
51922;DHT22;37948;53.260;6.394;2022-09-29T00:43:52;8.20;99.90
51922;DHT22;37948;53.260;6.394;2022-09-29T00:49:04;8.20;99.90
51922;DHT22;37948;53.260;6.394;2022-09-29T00:51:32;8.10;99.90
51922;DHT22;37948;53.260;6.394;2022-09-29T00:53:59;8.10;99.90
51922;DHT22;37948;53.260;6.394;2022-09-29T00:56:26;8.10;99.90
51922;DHT22;37948;53.260;6.394;2022-09-29T00:58:53;8.10;99.90
51922;DHT22;37948;53.260;6.394;2022-09-29T01:01:22;8.00;99.90
51922;DHT22;37948;53.260;6.394;2022-09-29T01:03:50;8.00;99.90
51922;DHT22;37948;53.260;6.394;2022-09-29T01:06:36;8.00;99.90
51922;DHT22;37948;53.260;6.394;2022-09-29T01:09:09;8.00;99.90
51922;DHT22;37948;53.260;6.394;2022-09-29T01:11:36;8.00;99.90
51922;DHT22;37948;53.260;6.394;2022-09-29T01:14:04;8.00;99.90
51922;DHT22;37948;53.260;6.394;2022-09-29T01:16:32;8.00;99.90
51922;DHT22;37948;53.260;6.394;2022-09-29T01:19:00;8.00;99.90
51922;DHT22;37948;53.260;6.394;2022-09-29T01:25:09;8.00;99.90
51922;DHT22;37948;53.260;6.394;2022-09-29T01:39:17;7.90;99.90
51922;DHT22;37948;53.260;6.394;2022-09-29T01:41:54;7.90;99.90
51922;DHT22;37948;53.260;6.394;2022-09-29T01:44:41;7.90;99.90
51922;DHT22;37948;53.260;6.394;2022-09-29T01:47:15;7.90;99.90
51922;DHT22;37948;53.260;6.394;2022-09-29T01:49:45;7.80;99.90
51922;DHT22;37948;53.260;6.394;2022-09-29T01:52:18;7.80;99.90
51922;DHT22;37948;53.260;6.394;2022-09-29T01:55:07;7.80;99.90
51922;DHT22;37948;53.260;6.394;2022-09-29T01:57:57;7.80;99.90
51922;DHT22;37948;53.260;6.394;2022-09-29T02:00:24;7.80;99.90
51922;DHT22;37948;53.260;6.394;2022-09-29T02:03:27;7.80;99.90
51922;DHT22;37948;53.260;6.394;2022-09-29T02:06:07;7.80;99.90
51922;DHT22;37948;53.260;6.394;2022-09-29T02:08:54;7.80;99.90
51922;DHT22;37948;53.260;6.394;2022-09-29T02:11:20;7.80;99.90
51922;DHT22;37948;53.260;6.394;2022-09-29T02:13:55;7.80;99.90
51922;DHT22;37948;53.260;6.394;2022-09-29T02:16:29;7.80;99.90
51922;DHT22;37948;53.260;6.394;2022-09-29T02:19:07;7.80;99.90
51922;DHT22;37948;53.260;6.394;2022-09-29T02:21:34;7.70;99.90
51922;DHT22;37948;53.260;6.394;2022-09-29T02:24:00;7.70;99.90
51922;DHT22;37948;53.260;6.394;2022-09-29T02:26:32;7.70;99.90
51922;DHT22;37948;53.260;6.394;2022-09-29T02:29:02;7.70;99.90
51922;DHT22;37948;53.260;6.394;2022-09-29T02:31:29;7.70;99.90
51922;DHT22;37948;53.260;6.394;2022-09-29T02:33:54;7.70;99.90
51922;DHT22;37948;53.260;6.394;2022-09-29T02:36:40;7.70;99.90
51922;DHT22;37948;53.260;6.394;2022-09-29T02:39:32;7.70;99.90
51922;DHT22;37948;53.260;6.394;2022-09-29T02:44:34;7.60;99.90
51922;DHT22;37948;53.260;6.394;2022-09-29T02:52:22;7.60;99.90
51922;DHT22;37948;53.260;6.394;2022-09-29T03:00:04;7.60;99.90
51922;DHT22;37948;53.260;6.394;2022-09-29T03:02:35;7.60;99.90
51922;DHT22;37948;53.260;6.394;2022-09-29T03:05:03;7.60;99.90
51922;DHT22;37948;53.260;6.394;2022-09-29T03:07:29;7.60;99.90
51922;DHT22;37948;53.260;6.394;2022-09-29T03:09:55;7.60;99.90
51922;DHT22;37948;53.260;6.394;2022-09-29T03:12:20;7.60;99.90
51922;DHT22;37948;53.260;6.394;2022-09-29T03:14:46;7.60;99.90
51922;DHT22;37948;53.260;6.394;2022-09-29T03:17:11;7.60;99.90
51922;DHT22;37948;53.260;6.394;2022-09-29T03:19:37;7.50;99.90
51922;DHT22;37948;53.260;6.394;2022-09-29T03:22:03;7.60;99.90
51922;DHT22;37948;53.260;6.394;2022-09-29T03:24:29;7.50;99.90
51922;DHT22;37948;53.260;6.394;2022-09-29T03:26:56;7.50;99.90
51922;DHT22;37948;53.260;6.394;2022-09-29T03:29:21;7.50;99.90
51922;DHT22;37948;53.260;6.394;2022-09-29T03:31:47;7.50;99.90
51922;DHT22;37948;53.260;6.394;2022-09-29T03:34:12;7.50;99.90
51922;DHT22;37948;53.260;6.394;2022-09-29T03:36:38;7.50;99.90
51922;DHT22;37948;53.260;6.394;2022-09-29T03:39:06;7.50;99.90
51922;DHT22;37948;53.260;6.394;2022-09-29T03:41:31;7.50;99.90
51922;DHT22;37948;53.260;6.394;2022-09-29T03:43:57;7.50;99.90
51922;DHT22;37948;53.260;6.394;2022-09-29T03:46:23;7.40;99.90
51922;DHT22;37948;53.260;6.394;2022-09-29T03:48:48;7.50;99.90
51922;DHT22;37948;53.260;6.394;2022-09-29T03:51:14;7.50;99.90
51922;DHT22;37948;53.260;6.394;2022-09-29T03:53:39;7.40;99.90
51922;DHT22;37948;53.260;6.394;2022-09-29T03:56:05;7.50;99.90
51922;DHT22;37948;53.260;6.394;2022-09-29T03:58:31;7.50;99.90
51922;DHT22;37948;53.260;6.394;2022-09-29T04:00:56;7.40;99.90
51922;DHT22;37948;53.260;6.394;2022-09-29T04:03:22;7.40;99.90
51922;DHT22;37948;53.260;6.394;2022-09-29T04:05:48;7.40;99.90
51922;DHT22;37948;53.260;6.394;2022-09-29T04:08:14;7.30;99.90
51922;DHT22;37948;53.260;6.394;2022-09-29T04:10:40;7.40;99.90
51922;DHT22;37948;53.260;6.394;2022-09-29T04:13:06;7.40;99.90
51922;DHT22;37948;53.260;6.394;2022-09-29T04:15:32;7.30;99.90
51922;DHT22;37948;53.260;6.394;2022-09-29T04:17:58;7.40;99.90
51922;DHT22;37948;53.260;6.394;2022-09-29T04:20:24;7.40;99.90
51922;DHT22;37948;53.260;6.394;2022-09-29T04:22:50;7.30;99.90
51922;DHT22;37948;53.260;6.394;2022-09-29T04:25:15;7.30;99.90
51922;DHT22;37948;53.260;6.394;2022-09-29T04:27:41;7.40;99.90
51922;DHT22;37948;53.260;6.394;2022-09-29T04:30:08;7.30;99.90
51922;DHT22;37948;53.260;6.394;2022-09-29T04:32:33;7.30;99.90
51922;DHT22;37948;53.260;6.394;2022-09-29T04:34:59;7.30;99.90
51922;DHT22;37948;53.260;6.394;2022-09-29T04:37:25;7.30;99.90
51922;DHT22;37948;53.260;6.394;2022-09-29T04:39:50;7.30;99.90
51922;DHT22;37948;53.260;6.394;2022-09-29T04:42:17;7.30;99.90
51922;DHT22;37948;53.260;6.394;2022-09-29T04:44:43;7.30;99.90
51922;DHT22;37948;53.260;6.394;2022-09-29T04:47:09;7.30;99.90
51922;DHT22;37948;53.260;6.394;2022-09-29T04:49:34;7.30;99.90
51922;DHT22;37948;53.260;6.394;2022-09-29T04:52:00;7.30;99.90
51922;DHT22;37948;53.260;6.394;2022-09-29T04:54:30;7.30;99.90
51922;DHT22;37948;53.260;6.394;2022-09-29T04:56:56;7.20;99.90
51922;DHT22;37948;53.260;6.394;2022-09-29T04:59:22;7.20;99.90
51922;DHT22;37948;53.260;6.394;2022-09-29T05:01:48;7.20;99.90
51922;DHT22;37948;53.260;6.394;2022-09-29T05:04:13;7.20;99.90
51922;DHT22;37948;53.260;6.394;2022-09-29T05:06:39;7.20;99.90
51922;DHT22;37948;53.260;6.394;2022-09-29T05:09:05;7.10;99.90
51922;DHT22;37948;53.260;6.394;2022-09-29T05:11:31;7.10;99.90
51922;DHT22;37948;53.260;6.394;2022-09-29T05:13:57;7.10;99.90
51922;DHT22;37948;53.260;6.394;2022-09-29T05:16:23;7.10;99.90
51922;DHT22;37948;53.260;6.394;2022-09-29T05:18:49;7.10;99.90
51922;DHT22;37948;53.260;6.394;2022-09-29T05:21:15;7.10;99.90
51922;DHT22;37948;53.260;6.394;2022-09-29T05:23:41;7.10;99.90
51922;DHT22;37948;53.260;6.394;2022-09-29T05:26:09;7.00;99.90
51922;DHT22;37948;53.260;6.394;2022-09-29T05:28:35;7.00;99.90
51922;DHT22;37948;53.260;6.394;2022-09-29T05:31:03;7.00;99.90
51922;DHT22;37948;53.260;6.394;2022-09-29T05:33:29;7.00;99.90
51922;DHT22;37948;53.260;6.394;2022-09-29T05:35:55;6.90;99.90
51922;DHT22;37948;53.260;6.394;2022-09-29T05:38:20;6.90;99.90
51922;DHT22;37948;53.260;6.394;2022-09-29T05:40:47;6.90;99.90
51922;DHT22;37948;53.260;6.394;2022-09-29T05:43:13;6.90;99.90
51922;DHT22;37948;53.260;6.394;2022-09-29T05:45:39;6.80;99.90
51922;DHT22;37948;53.260;6.394;2022-09-29T05:48:04;6.80;99.90
51922;DHT22;37948;53.260;6.394;2022-09-29T05:50:30;6.80;99.90
51922;DHT22;37948;53.260;6.394;2022-09-29T05:53:02;6.80;99.90
51922;DHT22;37948;53.260;6.394;2022-09-29T05:55:27;6.80;99.90
51922;DHT22;37948;53.260;6.394;2022-09-29T05:57:53;6.80;99.90
51922;DHT22;37948;53.260;6.394;2022-09-29T06:00:19;6.80;99.90
51922;DHT22;37948;53.260;6.394;2022-09-29T06:02:44;6.70;99.90
51922;DHT22;37948;53.260;6.394;2022-09-29T06:05:10;6.70;99.90
51922;DHT22;37948;53.260;6.394;2022-09-29T06:07:35;6.70;99.90
51922;DHT22;37948;53.260;6.394;2022-09-29T06:10:01;6.80;99.90
51922;DHT22;37948;53.260;6.394;2022-09-29T06:12:27;6.80;99.90
51922;DHT22;37948;53.260;6.394;2022-09-29T06:14:52;6.70;99.90
51922;DHT22;37948;53.260;6.394;2022-09-29T06:17:18;6.70;99.90
51922;DHT22;37948;53.260;6.394;2022-09-29T06:19:43;6.60;99.90
51922;DHT22;37948;53.260;6.394;2022-09-29T06:22:09;6.60;99.90
51922;DHT22;37948;53.260;6.394;2022-09-29T06:24:35;6.50;99.90
51922;DHT22;37948;53.260;6.394;2022-09-29T06:27:00;6.50;99.90
51922;DHT22;37948;53.260;6.394;2022-09-29T06:29:26;6.50;99.90
51922;DHT22;37948;53.260;6.394;2022-09-29T06:31:51;6.60;99.90
51922;DHT22;37948;53.260;6.394;2022-09-29T06:34:18;6.60;99.90
51922;DHT22;37948;53.260;6.394;2022-09-29T06:36:44;6.60;99.90
51922;DHT22;37948;53.260;6.394;2022-09-29T06:39:28;6.60;99.90
51922;DHT22;37948;53.260;6.394;2022-09-29T06:41:54;6.60;99.90
51922;DHT22;37948;53.260;6.394;2022-09-29T06:44:25;6.60;99.90
51922;DHT22;37948;53.260;6.394;2022-09-29T06:46:52;6.60;99.90
51922;DHT22;37948;53.260;6.394;2022-09-29T06:49:19;6.60;99.90
51922;DHT22;37948;53.260;6.394;2022-09-29T06:51:45;6.70;99.90
51922;DHT22;37948;53.260;6.394;2022-09-29T06:54:17;6.70;99.90
51922;DHT22;37948;53.260;6.394;2022-09-29T06:56:49;6.80;99.90
51922;DHT22;37948;53.260;6.394;2022-09-29T06:59:15;6.80;99.90
51922;DHT22;37948;53.260;6.394;2022-09-29T07:01:41;6.90;99.90
51922;DHT22;37948;53.260;6.394;2022-09-29T07:04:07;6.90;99.90
51922;DHT22;37948;53.260;6.394;2022-09-29T07:06:32;7.00;99.90
51922;DHT22;37948;53.260;6.394;2022-09-29T07:08:59;7.00;99.90
51922;DHT22;37948;53.260;6.394;2022-09-29T07:11:26;7.10;99.90
51922;DHT22;37948;53.260;6.394;2022-09-29T07:13:52;7.10;99.90
51922;DHT22;37948;53.260;6.394;2022-09-29T07:16:18;7.20;99.90
51922;DHT22;37948;53.260;6.394;2022-09-29T07:18:43;7.30;99.90
51922;DHT22;37948;53.260;6.394;2022-09-29T07:21:13;7.30;99.90
51922;DHT22;37948;53.260;6.394;2022-09-29T07:23:43;7.40;99.90
51922;DHT22;37948;53.260;6.394;2022-09-29T07:26:09;7.50;99.90
51922;DHT22;37948;53.260;6.394;2022-09-29T07:28:35;7.50;99.90
51922;DHT22;37948;53.260;6.394;2022-09-29T07:31:05;7.60;99.90
51922;DHT22;37948;53.260;6.394;2022-09-29T07:33:31;7.60;99.90
51922;DHT22;37948;53.260;6.394;2022-09-29T07:35:57;7.70;99.90
51922;DHT22;37948;53.260;6.394;2022-09-29T07:38:27;7.70;99.90
51922;DHT22;37948;53.260;6.394;2022-09-29T07:40:53;7.80;99.90
51922;DHT22;37948;53.260;6.394;2022-09-29T07:43:19;7.80;99.90
51922;DHT22;37948;53.260;6.394;2022-09-29T07:45:49;7.80;99.90
51922;DHT22;37948;53.260;6.394;2022-09-29T07:48:15;7.80;99.90
51922;DHT22;37948;53.260;6.394;2022-09-29T07:50:41;7.90;99.90
51922;DHT22;37948;53.260;6.394;2022-09-29T07:53:08;7.90;99.90
51922;DHT22;37948;53.260;6.394;2022-09-29T07:55:33;8.00;99.90
51922;DHT22;37948;53.260;6.394;2022-09-29T07:57:59;8.00;99.90
51922;DHT22;37948;53.260;6.394;2022-09-29T08:00:26;8.10;99.90
51922;DHT22;37948;53.260;6.394;2022-09-29T08:02:52;8.10;99.90
51922;DHT22;37948;53.260;6.394;2022-09-29T08:05:17;8.20;99.90
51922;DHT22;37948;53.260;6.394;2022-09-29T08:07:43;8.30;99.90
51922;DHT22;37948;53.260;6.394;2022-09-29T08:10:09;8.40;99.90
51922;DHT22;37948;53.260;6.394;2022-09-29T08:12:35;8.50;99.90
51922;DHT22;37948;53.260;6.394;2022-09-29T08:15:01;8.50;99.90
51922;DHT22;37948;53.260;6.394;2022-09-29T08:17:26;8.60;99.90
51922;DHT22;37948;53.260;6.394;2022-09-29T08:19:52;8.70;99.90
51922;DHT22;37948;53.260;6.394;2022-09-29T08:22:17;8.80;99.90
51922;DHT22;37948;53.260;6.394;2022-09-29T08:24:43;8.90;99.90
51922;DHT22;37948;53.260;6.394;2022-09-29T08:27:08;9.00;99.90
51922;DHT22;37948;53.260;6.394;2022-09-29T08:29:34;9.00;99.90
51922;DHT22;37948;53.260;6.394;2022-09-29T08:32:00;9.20;99.90
51922;DHT22;37948;53.260;6.394;2022-09-29T08:34:26;9.30;99.90
51922;DHT22;37948;53.260;6.394;2022-09-29T08:36:52;9.40;99.90
51922;DHT22;37948;53.260;6.394;2022-09-29T08:39:17;9.50;99.90
51922;DHT22;37948;53.260;6.394;2022-09-29T08:44:50;9.70;99.90
51922;DHT22;37948;53.260;6.394;2022-09-29T08:47:36;9.80;99.90
51922;DHT22;37948;53.260;6.394;2022-09-29T08:50:18;9.90;99.90
51922;DHT22;37948;53.260;6.394;2022-09-29T08:52:57;10.10;99.90
51922;DHT22;37948;53.260;6.394;2022-09-29T08:55:49;10.20;99.90
51922;DHT22;37948;53.260;6.394;2022-09-29T08:58:13;10.30;99.90
51922;DHT22;37948;53.260;6.394;2022-09-29T09:08:54;10.70;99.90
51922;DHT22;37948;53.260;6.394;2022-09-29T09:14:17;10.80;99.90
51922;DHT22;37948;53.260;6.394;2022-09-29T09:22:38;11.10;99.90
51922;DHT22;37948;53.260;6.394;2022-09-29T09:25:54;11.20;99.90
51922;DHT22;37948;53.260;6.394;2022-09-29T09:28:21;11.30;99.90
51922;DHT22;37948;53.260;6.394;2022-09-29T09:36:21;11.50;99.90
51922;DHT22;37948;53.260;6.394;2022-09-29T09:41:39;11.70;99.90
51922;DHT22;37948;53.260;6.394;2022-09-29T09:44:13;11.80;99.90
51922;DHT22;37948;53.260;6.394;2022-09-29T09:46:54;11.80;99.90
51922;DHT22;37948;53.260;6.394;2022-09-29T09:52:03;11.90;99.90
51922;DHT22;37948;53.260;6.394;2022-09-29T09:55:12;12.00;99.90
51922;DHT22;37948;53.260;6.394;2022-09-29T10:00:43;12.20;99.90
51922;DHT22;37948;53.260;6.394;2022-09-29T10:03:11;12.30;99.90
51922;DHT22;37948;53.260;6.394;2022-09-29T10:05:38;12.30;99.90
51922;DHT22;37948;53.260;6.394;2022-09-29T10:10:50;12.60;99.90
51922;DHT22;37948;53.260;6.394;2022-09-29T10:13:16;12.50;99.90
51922;DHT22;37948;53.260;6.394;2022-09-29T10:18:39;12.60;99.90
51922;DHT22;37948;53.260;6.394;2022-09-29T10:21:42;12.70;99.90
51922;DHT22;37948;53.260;6.394;2022-09-29T10:24:19;12.80;99.90
51922;DHT22;37948;53.260;6.394;2022-09-29T10:26:47;12.90;99.90
51922;DHT22;37948;53.260;6.394;2022-09-29T10:34:41;13.20;99.90
51922;DHT22;37948;53.260;6.394;2022-09-29T10:37:40;13.20;99.90
51922;DHT22;37948;53.260;6.394;2022-09-29T10:42:38;13.40;99.90
51922;DHT22;37948;53.260;6.394;2022-09-29T10:47:32;13.30;99.90
51922;DHT22;37948;53.260;6.394;2022-09-29T10:50:11;13.40;99.90
51922;DHT22;37948;53.260;6.394;2022-09-29T10:52:41;13.40;99.90
51922;DHT22;37948;53.260;6.394;2022-09-29T10:55:15;13.50;99.90
51922;DHT22;37948;53.260;6.394;2022-09-29T10:57:43;13.60;99.90
51922;DHT22;37948;53.260;6.394;2022-09-29T11:02:49;13.70;99.90
51922;DHT22;37948;53.260;6.394;2022-09-29T11:05:17;13.70;99.90
51922;DHT22;37948;53.260;6.394;2022-09-29T11:07:46;13.60;99.90
51922;DHT22;37948;53.260;6.394;2022-09-29T11:10:36;13.50;99.90
51922;DHT22;37948;53.260;6.394;2022-09-29T11:13:33;13.50;99.90
51922;DHT22;37948;53.260;6.394;2022-09-29T11:16:27;13.60;99.90
51922;DHT22;37948;53.260;6.394;2022-09-29T11:19:13;13.60;99.90
51922;DHT22;37948;53.260;6.394;2022-09-29T11:21:59;13.70;99.90
51922;DHT22;37948;53.260;6.394;2022-09-29T11:24:30;13.60;99.90
51922;DHT22;37948;53.260;6.394;2022-09-29T11:27:23;13.60;99.90
51922;DHT22;37948;53.260;6.394;2022-09-29T11:30:05;13.60;99.90
51922;DHT22;37948;53.260;6.394;2022-09-29T11:43:57;14.10;99.90
51922;DHT22;37948;53.260;6.394;2022-09-29T11:49:36;14.10;99.90
51922;DHT22;37948;53.260;6.394;2022-09-29T12:00:19;14.40;99.90
51922;DHT22;37948;53.260;6.394;2022-09-29T12:17:00;14.10;99.90
51922;DHT22;37948;53.260;6.394;2022-09-29T12:19:29;14.00;99.90
51922;DHT22;37948;53.260;6.394;2022-09-29T12:21:59;13.90;99.90
51922;DHT22;37948;53.260;6.394;2022-09-29T12:27:10;13.80;99.90
51922;DHT22;37948;53.260;6.394;2022-09-29T12:29:37;13.80;99.90
51922;DHT22;37948;53.260;6.394;2022-09-29T12:32:13;13.70;99.90
51922;DHT22;37948;53.260;6.394;2022-09-29T12:35:14;13.70;99.90
51922;DHT22;37948;53.260;6.394;2022-09-29T12:37:56;13.60;99.90
51922;DHT22;37948;53.260;6.394;2022-09-29T12:40:36;13.70;99.90
51922;DHT22;37948;53.260;6.394;2022-09-29T12:43:18;13.70;99.90
51922;DHT22;37948;53.260;6.394;2022-09-29T12:45:59;13.60;99.90
51922;DHT22;37948;53.260;6.394;2022-09-29T12:48:57;13.60;99.90
51922;DHT22;37948;53.260;6.394;2022-09-29T12:54:39;13.60;99.90
51922;DHT22;37948;53.260;6.394;2022-09-29T12:57:13;13.50;99.90
51922;DHT22;37948;53.260;6.394;2022-09-29T12:59:52;13.50;99.90
51922;DHT22;37948;53.260;6.394;2022-09-29T13:03:00;13.70;99.90
51922;DHT22;37948;53.260;6.394;2022-09-29T13:08:38;13.70;99.90
51922;DHT22;37948;53.260;6.394;2022-09-29T13:25:30;13.60;99.90
51922;DHT22;37948;53.260;6.394;2022-09-29T13:27:57;13.80;99.90
51922;DHT22;37948;53.260;6.394;2022-09-29T13:30:28;14.00;99.90
51922;DHT22;37948;53.260;6.394;2022-09-29T13:33:14;14.10;99.90
51922;DHT22;37948;53.260;6.394;2022-09-29T13:35:47;14.20;99.90
51922;DHT22;37948;53.260;6.394;2022-09-29T13:41:17;14.40;99.90
51922;DHT22;37948;53.260;6.394;2022-09-29T13:54:40;14.80;99.90
51922;DHT22;37948;53.260;6.394;2022-09-29T14:04:54;14.50;99.90
51922;DHT22;37948;53.260;6.394;2022-09-29T14:07:45;14.40;99.90
51922;DHT22;37948;53.260;6.394;2022-09-29T14:12:55;14.20;99.90
51922;DHT22;37948;53.260;6.394;2022-09-29T14:15:23;14.10;99.90
51922;DHT22;37948;53.260;6.394;2022-09-29T14:18:02;14.00;99.90
51922;DHT22;37948;53.260;6.394;2022-09-29T14:20:32;13.90;99.90
51922;DHT22;37948;53.260;6.394;2022-09-29T14:23:08;13.80;99.90
51922;DHT22;37948;53.260;6.394;2022-09-29T14:28:16;13.70;99.90
51922;DHT22;37948;53.260;6.394;2022-09-29T14:30:50;13.70;99.90
51922;DHT22;37948;53.260;6.394;2022-09-29T14:33:36;13.70;99.90
51922;DHT22;37948;53.260;6.394;2022-09-29T14:36:11;13.60;99.90
51922;DHT22;37948;53.260;6.394;2022-09-29T14:43:36;13.60;99.90
51922;DHT22;37948;53.260;6.394;2022-09-29T14:55:00;13.40;99.90
51922;DHT22;37948;53.260;6.394;2022-09-29T14:57:34;13.50;99.90
51922;DHT22;37948;53.260;6.394;2022-09-29T15:00:23;13.40;99.90
51922;DHT22;37948;53.260;6.394;2022-09-29T15:02:55;13.50;99.90
51922;DHT22;37948;53.260;6.394;2022-09-29T15:05:32;13.50;99.90
51922;DHT22;37948;53.260;6.394;2022-09-29T15:07:59;13.50;99.90
51922;DHT22;37948;53.260;6.394;2022-09-29T15:10:30;13.50;99.90
51922;DHT22;37948;53.260;6.394;2022-09-29T15:13:26;13.50;99.90
51922;DHT22;37948;53.260;6.394;2022-09-29T15:16:15;13.50;99.90
51922;DHT22;37948;53.260;6.394;2022-09-29T15:21:20;13.50;99.90
51922;DHT22;37948;53.260;6.394;2022-09-29T15:26:31;13.50;99.90
51922;DHT22;37948;53.260;6.394;2022-09-29T15:28:58;13.50;99.90
51922;DHT22;37948;53.260;6.394;2022-09-29T15:31:30;13.50;99.90
51922;DHT22;37948;53.260;6.394;2022-09-29T15:33:58;13.50;99.90
51922;DHT22;37948;53.260;6.394;2022-09-29T15:36:34;13.40;99.90
51922;DHT22;37948;53.260;6.394;2022-09-29T15:39:05;13.40;99.90
51922;DHT22;37948;53.260;6.394;2022-09-29T15:41:32;13.40;99.90
51922;DHT22;37948;53.260;6.394;2022-09-29T15:44:11;13.30;99.90
51922;DHT22;37948;53.260;6.394;2022-09-29T15:46:39;13.30;99.90
51922;DHT22;37948;53.260;6.394;2022-09-29T15:49:18;13.20;99.90
51922;DHT22;37948;53.260;6.394;2022-09-29T15:52:03;13.20;99.90
51922;DHT22;37948;53.260;6.394;2022-09-29T15:54:31;13.20;99.90
51922;DHT22;37948;53.260;6.394;2022-09-29T15:57:02;13.20;99.90
51922;DHT22;37948;53.260;6.394;2022-09-29T15:59:49;13.20;99.90
51922;DHT22;37948;53.260;6.394;2022-09-29T16:04:50;13.20;99.90
51922;DHT22;37948;53.260;6.394;2022-09-29T16:07:35;13.20;99.90
51922;DHT22;37948;53.260;6.394;2022-09-29T16:10:17;13.10;99.90
51922;DHT22;37948;53.260;6.394;2022-09-29T16:12:55;13.10;99.90
51922;DHT22;37948;53.260;6.394;2022-09-29T16:15:33;13.10;99.90
51922;DHT22;37948;53.260;6.394;2022-09-29T16:18:09;13.10;99.90
51922;DHT22;37948;53.260;6.394;2022-09-29T16:20:41;13.00;99.90
51922;DHT22;37948;53.260;6.394;2022-09-29T16:23:26;13.00;99.90
51922;DHT22;37948;53.260;6.394;2022-09-29T16:28:36;13.00;99.90
51922;DHT22;37948;53.260;6.394;2022-09-29T16:31:16;12.90;99.90
51922;DHT22;37948;53.260;6.394;2022-09-29T16:33:44;12.90;99.90
51922;DHT22;37948;53.260;6.394;2022-09-29T16:36:19;12.90;99.90
51922;DHT22;37948;53.260;6.394;2022-09-29T16:38:49;12.80;99.90
51922;DHT22;37948;53.260;6.394;2022-09-29T16:41:27;12.80;99.90
51922;DHT22;37948;53.260;6.394;2022-09-29T16:46:59;12.60;99.90
51922;DHT22;37948;53.260;6.394;2022-09-29T16:49:28;12.60;99.90
51922;DHT22;37948;53.260;6.394;2022-09-29T16:52:02;12.50;99.90
51922;DHT22;37948;53.260;6.394;2022-09-29T16:54:41;12.50;99.90
51922;DHT22;37948;53.260;6.394;2022-09-29T16:57:27;12.40;99.90
51922;DHT22;37948;53.260;6.394;2022-09-29T16:59:58;12.40;99.90
51922;DHT22;37948;53.260;6.394;2022-09-29T17:02:25;12.30;99.90
51922;DHT22;37948;53.260;6.394;2022-09-29T17:04:52;12.30;99.90
51922;DHT22;37948;53.260;6.394;2022-09-29T17:07:19;12.20;99.90
51922;DHT22;37948;53.260;6.394;2022-09-29T17:09:47;12.10;99.90
51922;DHT22;37948;53.260;6.394;2022-09-29T17:12:15;12.10;99.90
51922;DHT22;37948;53.260;6.394;2022-09-29T17:14:41;12.10;99.90
51922;DHT22;37948;53.260;6.394;2022-09-29T17:17:14;12.10;99.90
51922;DHT22;37948;53.260;6.394;2022-09-29T17:19:41;12.00;99.90
51922;DHT22;37948;53.260;6.394;2022-09-29T17:24:51;11.90;99.90
51922;DHT22;37948;53.260;6.394;2022-09-29T17:27:17;11.70;99.90
51922;DHT22;37948;53.260;6.394;2022-09-29T17:30:01;11.70;99.90
51922;DHT22;37948;53.260;6.394;2022-09-29T17:32:27;11.60;99.90
51922;DHT22;37948;53.260;6.394;2022-09-29T17:34:53;11.60;99.90
51922;DHT22;37948;53.260;6.394;2022-09-29T17:37:18;11.60;99.90
51922;DHT22;37948;53.260;6.394;2022-09-29T17:39:44;11.60;99.90
51922;DHT22;37948;53.260;6.394;2022-09-29T17:42:10;11.50;99.90
51922;DHT22;37948;53.260;6.394;2022-09-29T17:44:37;11.50;99.90
51922;DHT22;37948;53.260;6.394;2022-09-29T17:47:15;11.40;99.90
51922;DHT22;37948;53.260;6.394;2022-09-29T17:49:42;11.40;99.90
51922;DHT22;37948;53.260;6.394;2022-09-29T17:52:08;11.50;99.90
51922;DHT22;37948;53.260;6.394;2022-09-29T17:54:37;11.50;99.90
51922;DHT22;37948;53.260;6.394;2022-09-29T17:57:03;11.50;99.90
51922;DHT22;37948;53.260;6.394;2022-09-29T17:59:29;11.50;99.90
51922;DHT22;37948;53.260;6.394;2022-09-29T18:01:56;11.50;99.90
51922;DHT22;37948;53.260;6.394;2022-09-29T18:04:22;11.50;99.90
51922;DHT22;37948;53.260;6.394;2022-09-29T18:06:49;11.50;99.90
51922;DHT22;37948;53.260;6.394;2022-09-29T18:09:17;11.50;99.90
51922;DHT22;37948;53.260;6.394;2022-09-29T18:11:43;11.50;99.90
51922;DHT22;37948;53.260;6.394;2022-09-29T18:14:09;11.40;99.90
51922;DHT22;37948;53.260;6.394;2022-09-29T18:16:35;11.30;99.90
51922;DHT22;37948;53.260;6.394;2022-09-29T18:19:01;11.30;99.90
51922;DHT22;37948;53.260;6.394;2022-09-29T18:21:26;11.20;99.90
51922;DHT22;37948;53.260;6.394;2022-09-29T18:23:53;11.20;99.90
51922;DHT22;37948;53.260;6.394;2022-09-29T18:26:19;11.20;99.90
51922;DHT22;37948;53.260;6.394;2022-09-29T18:28:45;11.20;99.90
51922;DHT22;37948;53.260;6.394;2022-09-29T18:31:22;11.20;99.90
51922;DHT22;37948;53.260;6.394;2022-09-29T18:33:48;11.20;99.90
51922;DHT22;37948;53.260;6.394;2022-09-29T18:36:14;11.10;99.90
51922;DHT22;37948;53.260;6.394;2022-09-29T18:38:39;11.10;99.90
51922;DHT22;37948;53.260;6.394;2022-09-29T18:41:08;11.10;99.90
51922;DHT22;37948;53.260;6.394;2022-09-29T18:43:34;11.10;99.90
51922;DHT22;37948;53.260;6.394;2022-09-29T18:46:00;11.00;99.90
51922;DHT22;37948;53.260;6.394;2022-09-29T18:48:25;11.00;99.90
51922;DHT22;37948;53.260;6.394;2022-09-29T18:50:52;10.90;99.90
51922;DHT22;37948;53.260;6.394;2022-09-29T18:53:21;10.90;99.90
51922;DHT22;37948;53.260;6.394;2022-09-29T18:55:47;10.80;99.90
51922;DHT22;37948;53.260;6.394;2022-09-29T18:58:19;10.80;99.90
51922;DHT22;37948;53.260;6.394;2022-09-29T19:00:50;10.80;99.90
51922;DHT22;37948;53.260;6.394;2022-09-29T19:03:18;10.70;99.90
51922;DHT22;37948;53.260;6.394;2022-09-29T19:05:44;10.70;99.90
51922;DHT22;37948;53.260;6.394;2022-09-29T19:08:12;10.70;99.90
51922;DHT22;37948;53.260;6.394;2022-09-29T19:10:39;10.80;99.90
51922;DHT22;37948;53.260;6.394;2022-09-29T19:13:09;10.70;99.90
51922;DHT22;37948;53.260;6.394;2022-09-29T19:15:38;10.70;99.90
51922;DHT22;37948;53.260;6.394;2022-09-29T19:18:05;10.70;99.90
51922;DHT22;37948;53.260;6.394;2022-09-29T19:20:33;10.70;99.90
51922;DHT22;37948;53.260;6.394;2022-09-29T19:22:59;10.60;99.90